Time;durP1;ratioP1;P1;durP2;ratioP2;P2;SDS_P1;SDS_P2;PMS_P1;PMS_P2;Temp;Humidity;BMP_temperature;BMP_pressure;BME280_temperature;BME280_humidity;BME280_pressure;Samples;Min_cycle;Max_cycle;Signal;HPM_P1;HPM_P2
2022/12/30 00:02:22;;;;;;;;;;;;;;;6.76;100.00;100920.84;5028137;28;20004;-79
2022/12/30 00:04:47;;;;;;;;;;;;;;;6.76;100.00;100915.66;5026672;28;19932;-79
2022/12/30 00:07:12;;;;;;;;;;;;;;;6.73;100.00;100916.56;5027786;28;19951;-79
2022/12/30 00:09:38;;;;;;;;;;;;;;;6.73;100.00;100920.03;5023634;28;20210;-79
2022/12/30 00:33:06;;;;;;;;;;;;;;;6.73;100.00;100919.16;5030706;28;19937;-79
2022/12/30 00:34:06;;;;;;;;;;;;;;;6.70;100.00;100908.84;5020698;28;19920;-79
2022/12/30 00:36:32;;;;;;;;;;;;;;;6.69;100.00;100902.78;5024680;28;19976;-79
2022/12/30 00:38:57;;;;;;;;;;;;;;;6.67;100.00;100912.34;5021541;28;20107;-79
2022/12/30 00:44:23;;;;;;;;;;;;;;;6.67;100.00;100909.75;4997948;28;20157;-79
2022/12/30 00:46:49;;;;;;;;;;;;;;;6.70;100.00;100906.25;5015040;28;19941;-79
2022/12/30 00:57:26;;;;;;;;;;;;;;;6.69;100.00;100908.00;5019053;28;19993;-79
2022/12/30 00:59:51;;;;;;;;;;;;;;;6.68;100.00;100914.06;5035454;28;20204;-79
2022/12/30 01:02:17;;;;;;;;;;;;;;;6.69;100.00;100909.72;5050333;28;19925;-79
2022/12/30 01:04:42;;;;;;;;;;;;;;;6.69;100.00;100910.59;5039012;28;20185;-79
2022/12/30 01:07:07;;;;;;;;;;;;;;;6.69;100.00;100913.19;5038799;28;20110;-79
2022/12/30 01:09:36;;;;;;;;;;;;;;;6.70;100.00;100917.50;5038427;28;19914;-79
2022/12/30 01:12:07;;;;;;;;;;;;;;;6.71;100.00;100921.81;5038923;28;19937;-79
2022/12/30 01:14:34;;;;;;;;;;;;;;;6.69;100.00;100926.22;5038392;28;20135;-79
2022/12/30 01:16:59;;;;;;;;;;;;;;;6.70;100.00;100940.06;5038731;28;20265;-79
2022/12/30 01:19:24;;;;;;;;;;;;;;;6.69;100.00;100941.81;5038925;28;20212;-79
2022/12/30 01:21:49;;;;;;;;;;;;;;;6.70;100.00;100938.31;5038313;28;19925;-79
2022/12/30 01:24:15;;;;;;;;;;;;;;;6.70;100.00;100951.31;5037691;28;20173;-79
2022/12/30 01:26:40;;;;;;;;;;;;;;;6.69;100.00;100951.34;5038114;28;20139;-79
2022/12/30 01:29:05;;;;;;;;;;;;;;;6.68;100.00;100949.66;5040165;28;20156;-79
2022/12/30 01:31:30;;;;;;;;;;;;;;;6.68;100.00;100957.47;5058179;28;19928;-79
2022/12/30 01:33:56;;;;;;;;;;;;;;;6.70;100.00;100950.47;5034664;28;19932;-79
2022/12/30 01:36:21;;;;;;;;;;;;;;;6.71;100.00;100963.47;5019181;28;19929;-79
2022/12/30 01:38:46;;;;;;;;;;;;;;;6.71;100.00;100966.06;5029176;28;19956;-79
2022/12/30 01:41:12;;;;;;;;;;;;;;;6.73;100.00;100956.47;5019201;28;19920;-79
2022/12/30 01:43:47;;;;;;;;;;;;;;;6.74;100.00;100952.13;5022023;28;20121;-79
2022/12/30 01:46:24;;;;;;;;;;;;;;;6.72;100.00;100943.50;5037946;28;19948;-79
2022/12/30 01:48:51;;;;;;;;;;;;;;;6.72;100.00;100956.50;5037943;28;20238;-79
2022/12/30 01:51:19;;;;;;;;;;;;;;;6.72;100.00;100948.69;5032255;28;20200;-79
2022/12/30 01:53:45;;;;;;;;;;;;;;;6.74;100.00;100944.31;5034188;28;20201;-79
2022/12/30 01:56:16;;;;;;;;;;;;;;;6.74;100.00;100952.13;5037232;28;19931;-79
2022/12/30 01:59:11;;;;;;;;;;;;;;;6.75;100.00;100932.13;5028158;28;19921;-79
2022/12/30 02:01:36;;;;;;;;;;;;;;;6.76;100.00;100936.47;5032472;28;19944;-79
2022/12/30 02:04:07;;;;;;;;;;;;;;;6.75;100.00;100922.59;5027426;28;20190;-79
2022/12/30 02:06:50;;;;;;;;;;;;;;;6.75;100.00;100925.22;5018790;28;19952;-79
2022/12/30 02:09:15;;;;;;;;;;;;;;;6.75;100.00;100912.19;5028954;28;20121;-79
2022/12/30 02:11:40;;;;;;;;;;;;;;;6.75;100.00;100916.53;5037138;28;19988;-79
2022/12/30 02:14:06;;;;;;;;;;;;;;;6.74;100.00;100905.25;5028736;28;19926;-79
2022/12/30 02:16:34;;;;;;;;;;;;;;;6.73;100.00;100907.03;5021125;28;19941;-79
2022/12/30 02:19:26;;;;;;;;;;;;;;;6.73;100.00;100907.03;5031070;28;20220;-79
2022/12/30 02:21:51;;;;;;;;;;;;;;;6.72;100.00;100914.84;5032625;28;19925;-79
2022/12/30 02:24:16;;;;;;;;;;;;;;;6.71;100.00;100916.63;5021316;28;20200;-79
2022/12/30 02:26:55;;;;;;;;;;;;;;;6.71;100.00;100921.81;5025906;28;20205;-79
2022/12/30 02:29:23;;;;;;;;;;;;;;;6.70;100.00;100917.50;5028521;28;19924;-79
2022/12/30 02:31:53;;;;;;;;;;;;;;;6.70;100.00;100925.31;5027013;28;19927;-79
2022/12/30 02:34:24;;;;;;;;;;;;;;;6.71;100.00;100926.16;5029939;28;20247;-79
2022/12/30 02:36:57;;;;;;;;;;;;;;;6.71;100.00;100929.63;5023136;28;19921;-79
2022/12/30 02:39:23;;;;;;;;;;;;;;;6.70;100.00;100927.91;5036398;28;19921;-79
2022/12/30 02:45:12;;;;;;;;;;;;;;;6.70;100.00;100922.69;5017538;28;19999;-79
2022/12/30 02:47:38;;;;;;;;;;;;;;;6.70;100.00;100922.69;5026087;28;20163;-79
2022/12/30 02:52:50;;;;;;;;;;;;;;;6.67;100.00;100917.56;5036960;28;20120;-79
2022/12/30 02:55:15;;;;;;;;;;;;;;;6.67;100.00;100911.50;5036924;28;19910;-79
2022/12/30 02:57:41;;;;;;;;;;;;;;;6.67;100.00;100895.88;5037116;28;19932;-79
2022/12/30 03:06:13;;;;;;;;;;;;;;;6.66;100.00;100908.06;5057048;28;20134;-79
2022/12/30 03:08:52;;;;;;;;;;;;;;;6.65;100.00;100897.69;5055587;28;20099;-79
2022/12/30 03:11:18;;;;;;;;;;;;;;;6.63;100.00;100895.09;5056655;28;19923;-79
2022/12/30 03:14:01;;;;;;;;;;;;;;;6.62;100.00;100897.75;5036614;28;19941;-79
2022/12/30 03:16:27;;;;;;;;;;;;;;;6.60;100.00;100891.72;5029484;28;20247;-79
2022/12/30 03:18:53;;;;;;;;;;;;;;;6.59;100.00;100883.06;5036350;28;19909;-79
2022/12/30 03:21:20;;;;;;;;;;;;;;;6.54;100.00;100877.94;5026230;28;19909;-79
2022/12/30 03:29:19;;;;;;;;;;;;;;;6.54;100.00;100888.34;5020282;28;19971;-79
2022/12/30 03:31:44;;;;;;;;;;;;;;;6.55;100.00;100894.44;5025530;28;19921;-79
2022/12/30 03:34:10;;;;;;;;;;;;;;;6.54;100.00;100888.34;5016429;28;20232;-79
2022/12/30 03:36:40;;;;;;;;;;;;;;;6.54;100.00;100883.16;5025857;28;19925;-79
2022/12/30 03:39:13;;;;;;;;;;;;;;;6.53;100.00;100888.38;5020130;28;20116;-79
2022/12/30 03:41:40;;;;;;;;;;;;;;;6.53;100.00;100891.00;5019857;28;19921;-79
2022/12/30 03:44:08;;;;;;;;;;;;;;;6.52;100.00;100887.53;5036462;28;20291;-79
2022/12/30 03:46:33;;;;;;;;;;;;;;;6.53;100.00;100885.78;5017807;28;19921;-79
2022/12/30 03:48:59;;;;;;;;;;;;;;;6.52;100.00;100882.34;5020513;28;19923;-79
2022/12/30 03:51:24;;;;;;;;;;;;;;;6.52;100.00;100874.53;5032668;28;20001;-79
2022/12/30 03:53:49;;;;;;;;;;;;;;;6.51;100.00;100883.25;5039935;28;19944;-79
2022/12/30 03:56:15;;;;;;;;;;;;;;;6.50;100.00;100873.72;5023921;28;20214;-78
2022/12/30 03:58:40;;;;;;;;;;;;;;;6.50;100.00;100875.47;5018433;28;19925;-78
2022/12/30 04:01:05;;;;;;;;;;;;;;;6.48;100.00;100870.31;5026751;28;20276;-79
2022/12/30 04:03:31;;;;;;;;;;;;;;;6.48;100.00;100869.47;5018883;28;19936;-79
2022/12/30 04:05:56;;;;;;;;;;;;;;;6.49;100.00;100865.94;5021280;28;20004;-79
2022/12/30 04:08:22;;;;;;;;;;;;;;;6.49;100.00;100868.53;5020398;28;19924;-79
2022/12/30 04:10:47;;;;;;;;;;;;;;;6.46;100.00;100861.69;5027044;28;19921;-79
2022/12/30 04:13:13;;;;;;;;;;;;;;;6.46;100.00;100866.03;5038592;28;19925;-79
2022/12/30 04:15:38;;;;;;;;;;;;;;;6.45;100.00;100861.72;5018303;28;19922;-79
2022/12/30 04:18:03;;;;;;;;;;;;;;;6.45;100.00;100861.72;5019084;28;19979;-79
2022/12/30 04:20:29;;;;;;;;;;;;;;;6.44;100.00;100860.00;5024151;28;19930;-79
2022/12/30 04:22:57;;;;;;;;;;;;;;;6.43;100.00;100868.69;5019824;28;19932;-79
2022/12/30 04:25:23;;;;;;;;;;;;;;;6.44;100.00;100870.41;5020389;28;19932;-79
2022/12/30 04:27:48;;;;;;;;;;;;;;;6.41;100.00;100860.94;5019607;28;20113;-79
2022/12/30 04:30:14;;;;;;;;;;;;;;;6.40;100.00;100863.56;5042304;28;19929;-79
2022/12/30 04:32:39;;;;;;;;;;;;;;;6.39;100.00;100875.72;5023679;28;19932;-79
2022/12/30 04:35:05;;;;;;;;;;;;;;;6.40;100.00;100866.16;5031749;28;19917;-79
2022/12/30 04:37:30;;;;;;;;;;;;;;;6.40;100.00;100863.56;5037365;28;19925;-79
2022/12/30 04:39:55;;;;;;;;;;;;;;;6.40;100.00;100872.22;5039245;28;20101;-79
2022/12/30 04:42:21;;;;;;;;;;;;;;;6.40;100.00;100872.22;5026741;28;19929;-79
2022/12/30 04:44:46;;;;;;;;;;;;;;;6.40;100.00;100867.00;5039006;28;19997;-79
2022/12/30 04:47:11;;;;;;;;;;;;;;;6.40;100.00;100858.34;5030047;28;20216;-79
2022/12/30 04:49:36;;;;;;;;;;;;;;;6.40;100.00;100851.41;5017880;28;19921;-79
2022/12/30 04:52:02;;;;;;;;;;;;;;;6.40;100.00;100850.56;5018404;28;19922;-79
2022/12/30 04:54:27;;;;;;;;;;;;;;;6.39;100.00;100844.50;5019252;28;19922;-79
2022/12/30 04:56:52;;;;;;;;;;;;;;;6.39;100.00;100843.66;5001586;28;19958;-79
2022/12/30 04:59:17;;;;;;;;;;;;;;;6.39;100.00;100848.84;5030345;28;19921;-79
2022/12/30 05:01:43;;;;;;;;;;;;;;;6.38;100.00;100850.59;5058715;28;20109;-79
2022/12/30 05:04:08;;;;;;;;;;;;;;;6.38;100.00;100837.56;5059289;28;20231;-79
2022/12/30 05:06:33;;;;;;;;;;;;;;;6.38;100.00;100839.31;5058736;28;20120;-79
2022/12/30 05:08:59;;;;;;;;;;;;;;;6.37;100.00;100835.88;5059305;28;19921;-79
2022/12/30 05:11:24;;;;;;;;;;;;;;;6.37;100.00;100840.22;5057771;28;19934;-79
2022/12/30 05:13:49;;;;;;;;;;;;;;;6.36;100.00;100835.91;5058276;28;19913;-79
2022/12/30 05:16:14;;;;;;;;;;;;;;;6.36;100.00;100849.75;5029081;28;19984;-79
2022/12/30 05:18:40;;;;;;;;;;;;;;;6.35;100.00;100840.28;5019084;28;19926;-79
2022/12/30 05:21:05;;;;;;;;;;;;;;;6.36;100.00;100849.75;5019007;28;19959;-79
2022/12/30 05:26:15;;;;;;;;;;;;;;;6.33;100.00;100840.31;5038503;28;19995;-79
2022/12/30 05:28:41;;;;;;;;;;;;;;;6.34;100.00;100830.75;5026300;28;20152;-79
2022/12/30 05:31:07;;;;;;;;;;;;;;;6.34;100.00;100835.94;5026842;28;19987;-79
2022/12/30 05:33:32;;;;;;;;;;;;;;;6.33;100.00;100835.09;5026652;28;19940;-79
2022/12/30 05:35:57;;;;;;;;;;;;;;;6.32;100.00;100824.72;5025934;28;19921;-79
2022/12/30 05:38:22;;;;;;;;;;;;;;;6.32;100.00;100822.97;5028594;28;19978;-80
2022/12/30 05:40:49;;;;;;;;;;;;;;;6.31;100.00;100826.47;5017310;28;19924;-79
2022/12/30 05:43:14;;;;;;;;;;;;;;;6.31;100.00;100826.47;5034650;28;19925;-79
2022/12/30 05:45:40;;;;;;;;;;;;;;;6.31;100.00;100820.41;5017084;28;19960;-80
2022/12/30 05:48:05;;;;;;;;;;;;;;;6.30;100.00;100811.75;5017954;28;19929;-79
2022/12/30 05:50:30;;;;;;;;;;;;;;;6.30;100.00;100796.16;5038412;28;19928;-79
2022/12/30 05:52:56;;;;;;;;;;;;;;;6.30;100.00;100805.69;5033868;28;19929;-79
2022/12/30 05:55:21;;;;;;;;;;;;;;;6.29;100.00;100798.78;5021036;28;20260;-79
2022/12/30 05:57:46;;;;;;;;;;;;;;;6.27;100.00;100798.81;5018112;28;19929;-79
2022/12/30 06:00:12;;;;;;;;;;;;;;;6.28;100.00;100784.09;5032647;28;20093;-79
2022/12/30 06:02:37;;;;;;;;;;;;;;;6.26;100.00;100784.09;5019764;28;20204;-79
2022/12/30 06:05:03;;;;;;;;;;;;;;;6.26;100.00;100783.25;5030967;28;20136;-79
2022/12/30 06:07:28;;;;;;;;;;;;;;;6.25;100.00;100778.94;5035937;28;19996;-79
2022/12/30 06:09:53;;;;;;;;;;;;;;;6.24;100.00;100779.81;5026885;28;20100;-79
2022/12/30 06:12:18;;;;;;;;;;;;;;;6.23;100.00;100785.94;5022992;28;19983;-79
2022/12/30 06:14:44;;;;;;;;;;;;;;;6.24;100.00;100790.22;5023937;28;20121;-79
2022/12/30 06:17:09;;;;;;;;;;;;;;;6.23;100.00;100781.56;5037896;28;19924;-79
2022/12/30 06:19:34;;;;;;;;;;;;;;;6.22;100.00;100773.81;5030997;28;19917;-79
2022/12/30 06:21:59;;;;;;;;;;;;;;;6.22;100.00;100772.06;5023086;28;19971;-79
2022/12/30 06:24:25;;;;;;;;;;;;;;;6.22;100.00;100766.00;5035194;28;19967;-79
2022/12/30 06:26:50;;;;;;;;;;;;;;;6.19;100.00;100766.94;5019454;28;20158;-79
2022/12/30 06:29:15;;;;;;;;;;;;;;;6.19;100.00;100766.94;5040579;28;19964;-79
2022/12/30 06:31:41;;;;;;;;;;;;;;;6.19;100.00;100764.34;5033969;28;19929;-79
2022/12/30 06:34:06;;;;;;;;;;;;;;;6.19;100.00;100766.09;5031805;28;19917;-79
2022/12/30 06:36:31;;;;;;;;;;;;;;;6.17;100.00;100755.72;5020228;28;19951;-79
2022/12/30 06:38:58;;;;;;;;;;;;;;;6.17;100.00;100739.25;5032266;28;19921;-79
2022/12/30 06:41:23;;;;;;;;;;;;;;;6.16;100.00;100743.59;5025850;28;19916;-79
2022/12/30 06:43:48;;;;;;;;;;;;;;;6.15;100.00;100734.94;5026203;28;20177;-79
2022/12/30 06:46:13;;;;;;;;;;;;;;;6.14;100.00;100730.63;5037277;28;19984;-79
2022/12/30 06:48:39;;;;;;;;;;;;;;;6.15;100.00;100719.34;5037258;28;20232;-79
2022/12/30 06:51:04;;;;;;;;;;;;;;;6.13;100.00;100718.53;5037498;28;19913;-79
2022/12/30 06:53:29;;;;;;;;;;;;;;;6.14;100.00;100714.19;5019628;28;20117;-79
2022/12/30 06:55:55;;;;;;;;;;;;;;;6.13;100.00;100722.88;5037371;28;19964;-79
2022/12/30 06:58:20;;;;;;;;;;;;;;;6.12;100.00;100721.16;5037240;28;19928;-80
2022/12/30 07:00:45;;;;;;;;;;;;;;;6.11;100.00;100711.66;5051349;28;19980;-79
2022/12/30 07:03:11;;;;;;;;;;;;;;;6.10;100.00;100697.81;5057100;28;19928;-80
2022/12/30 07:05:36;;;;;;;;;;;;;;;6.10;100.00;100712.56;5055442;28;19909;-79
2022/12/30 07:08:01;;;;;;;;;;;;;;;6.09;100.00;100696.13;5057235;28;19924;-79
2022/12/30 07:10:27;;;;;;;;;;;;;;;6.09;100.00;100697.84;5044753;28;19932;-79
2022/12/30 07:12:52;;;;;;;;;;;;;;;6.08;100.00;100693.53;5029780;28;19921;-79
2022/12/30 07:15:17;;;;;;;;;;;;;;;6.06;100.00;100693.56;5034525;28;19917;-80
2022/12/30 07:17:43;;;;;;;;;;;;;;;6.07;100.00;100684.03;5025278;28;19923;-79
2022/12/30 07:20:08;;;;;;;;;;;;;;;6.06;100.00;100680.56;5023622;28;19925;-79
2022/12/30 07:22:33;;;;;;;;;;;;;;;6.06;100.00;100666.72;5032149;28;19931;-79
2022/12/30 07:24:58;;;;;;;;;;;;;;;6.04;100.00;100663.28;5041021;28;19958;-79
2022/12/30 07:27:24;;;;;;;;;;;;;;;6.04;100.00;100653.75;5039250;28;19929;-79
2022/12/30 07:29:50;;;;;;;;;;;;;;;6.05;100.00;100654.63;5038170;28;19925;-79
2022/12/30 07:32:15;;;;;;;;;;;;;;;6.03;100.00;100649.44;5032551;28;20240;-79
2022/12/30 07:34:40;;;;;;;;;;;;;;;6.03;100.00;100646.84;5022446;28;20340;-79
2022/12/30 07:37:06;;;;;;;;;;;;;;;6.02;100.00;100646.88;5039876;28;19931;-79
2022/12/30 07:39:31;;;;;;;;;;;;;;;6.02;100.00;100639.06;5033997;28;19955;-79
2022/12/30 07:41:57;;;;;;;;;;;;;;;6.01;100.00;100640.00;5040008;28;19944;-79
2022/12/30 07:44:22;;;;;;;;;;;;;;;6.00;100.00;100636.50;5031035;28;20113;-79
2022/12/30 07:46:47;;;;;;;;;;;;;;;6.00;100.00;100654.72;5038819;28;19913;-79
2022/12/30 07:49:13;;;;;;;;;;;;;;;6.00;100.00;100641.72;5034034;28;19920;-80
2022/12/30 07:51:38;;;;;;;;;;;;;;;6.01;100.00;100632.19;5035980;28;20101;-80
2022/12/30 07:54:03;;;;;;;;;;;;;;;6.00;100.00;100633.91;5036897;28;19917;-79
2022/12/30 07:56:29;;;;;;;;;;;;;;;6.00;100.00;100620.06;5040227;28;19949;-79
2022/12/30 07:58:54;;;;;;;;;;;;;;;5.99;100.00;100616.63;5034747;28;20120;-80
2022/12/30 08:01:20;;;;;;;;;;;;;;;5.98;100.00;100620.09;5031260;28;19948;-79
2022/12/30 08:03:45;;;;;;;;;;;;;;;5.99;100.00;100616.63;5035784;28;20016;-79
2022/12/30 08:06:12;;;;;;;;;;;;;;;5.99;100.00;100603.63;5026841;28;19917;-79
2022/12/30 08:08:38;;;;;;;;;;;;;;;6.01;100.00;100601.00;5041852;28;19935;-79
2022/12/30 08:11:04;;;;;;;;;;;;;;;5.99;100.00;100597.59;5023152;28;19917;-79
2022/12/30 08:13:30;;;;;;;;;;;;;;;5.99;100.00;100579.38;5027101;28;19948;-79
2022/12/30 08:15:55;;;;;;;;;;;;;;;5.99;100.00;100587.19;5037499;28;19909;-79
2022/12/30 08:18:20;;;;;;;;;;;;;;;6.00;100.00;100588.88;5030080;28;20312;-79
2022/12/30 08:20:46;;;;;;;;;;;;;;;5.99;100.00;100597.59;5031060;28;20232;-79
2022/12/30 08:23:11;;;;;;;;;;;;;;;5.99;100.00;100600.19;5032092;28;19921;-79
2022/12/30 08:25:36;;;;;;;;;;;;;;;5.98;100.00;100594.09;5026287;28;19913;-80
2022/12/30 08:28:02;;;;;;;;;;;;;;;5.98;100.00;100596.72;5033272;28;19928;-79
2022/12/30 08:30:27;;;;;;;;;;;;;;;5.98;100.00;100590.66;5025190;28;19918;-79
2022/12/30 08:32:52;;;;;;;;;;;;;;;5.98;100.00;100595.88;5034356;28;19932;-79
2022/12/30 08:35:18;;;;;;;;;;;;;;;5.98;100.00;100585.47;5033888;28;20108;-79
2022/12/30 08:37:43;;;;;;;;;;;;;;;6.00;100.00;100594.06;5034682;28;19913;-79
2022/12/30 08:40:09;;;;;;;;;;;;;;;5.99;100.00;100580.22;5026229;28;19940;-79
2022/12/30 08:42:34;;;;;;;;;;;;;;;6.01;100.00;100586.25;5032655;28;19932;-79
2022/12/30 08:45:00;;;;;;;;;;;;;;;6.01;100.00;100573.25;5033954;28;20063;-79
2022/12/30 08:47:25;;;;;;;;;;;;;;;6.02;100.00;100584.47;5023653;28;19960;-79
2022/12/30 08:49:50;;;;;;;;;;;;;;;6.03;100.00;100575.81;5023556;28;19929;-79
2022/12/30 08:52:15;;;;;;;;;;;;;;;6.04;100.00;100564.50;5032292;28;19925;-79
2022/12/30 08:54:41;;;;;;;;;;;;;;;6.04;100.00;100554.97;5028144;28;20302;-79
2022/12/30 08:57:07;;;;;;;;;;;;;;;6.05;100.00;100553.22;5030280;28;20377;-79
2022/12/30 08:59:32;;;;;;;;;;;;;;;6.07;100.00;100547.06;5027035;28;19921;-79
2022/12/30 09:01:57;;;;;;;;;;;;;;;6.07;100.00;100544.47;5030102;28;19921;-79
2022/12/30 09:04:23;;;;;;;;;;;;;;;6.07;100.00;100534.06;5024562;28;19921;-79
2022/12/30 09:06:48;;;;;;;;;;;;;;;6.07;100.00;100536.69;5022050;28;19917;-79
2022/12/30 09:09:14;;;;;;;;;;;;;;;6.07;100.00;100528.03;5034247;28;20248;-79
2022/12/30 09:11:40;;;;;;;;;;;;;;;6.09;100.00;100528.84;5018225;28;19909;-79
2022/12/30 09:14:06;;;;;;;;;;;;;;;6.10;100.00;100520.16;5024522;28;20171;-79
2022/12/30 09:16:32;;;;;;;;;;;;;;;6.10;100.00;100520.16;5024121;28;20127;-79
2022/12/30 09:18:57;;;;;;;;;;;;;;;6.11;100.00;100517.53;5018947;28;19917;-79
2022/12/30 09:21:23;;;;;;;;;;;;;;;6.11;100.00;100514.91;5018782;28;19944;-79
2022/12/30 09:23:48;;;;;;;;;;;;;;;6.11;100.00;100514.91;5018473;28;20156;-79
2022/12/30 09:26:15;;;;;;;;;;;;;;;6.11;100.00;100501.91;5018878;28;19922;-79
2022/12/30 09:28:40;;;;;;;;;;;;;;;6.12;100.00;100487.16;5017951;28;19984;-79
2022/12/30 09:31:05;;;;;;;;;;;;;;;6.13;100.00;100479.31;5055377;28;19962;-79
2022/12/30 09:33:31;;;;;;;;;;;;;;;6.14;100.00;100485.38;5058776;28;20294;-79
2022/12/30 09:35:57;;;;;;;;;;;;;;;6.15;100.00;100487.09;5056904;28;19951;-79
2022/12/30 09:38:22;;;;;;;;;;;;;;;6.16;100.00;100480.97;5058289;28;19909;-79
2022/12/30 09:40:48;;;;;;;;;;;;;;;6.17;100.00;100484.41;5057991;28;19925;-79
2022/12/30 09:43:19;;;;;;;;;;;;;;;6.17;100.00;100463.63;5058518;28;20211;-79
2022/12/30 09:46:01;;;;;;;;;;;;;;;6.18;100.00;100463.56;5057050;28;19912;-80
2022/12/30 09:48:28;;;;;;;;;;;;;;;6.18;100.00;100460.13;5058200;28;19916;-79
2022/12/30 09:50:53;;;;;;;;;;;;;;;6.17;100.00;100451.50;5058000;28;20148;-79
2022/12/30 09:53:25;;;;;;;;;;;;;;;6.19;100.00;100452.28;5058393;28;19924;-79
2022/12/30 09:55:52;;;;;;;;;;;;;;;6.21;100.00;100447.06;5058037;28;20246;-79
2022/12/30 09:58:31;;;;;;;;;;;;;;;6.21;100.00;100441.84;5058011;28;20228;-80
2022/12/30 10:01:06;;;;;;;;;;;;;;;6.23;100.00;100438.31;5057626;28;19939;-79
2022/12/30 10:03:31;;;;;;;;;;;;;;;6.24;100.00;100429.63;5057666;28;19912;-79
2022/12/30 10:06:04;;;;;;;;;;;;;;;6.25;100.00;100428.69;5057555;28;19920;-79
2022/12/30 10:08:48;;;;;;;;;;;;;;;6.24;100.00;100411.41;5029935;28;19921;-79
2022/12/30 10:11:27;;;;;;;;;;;;;;;6.26;100.00;100399.22;5033955;28;19975;-79
2022/12/30 10:14:07;;;;;;;;;;;;;;;6.27;100.00;100392.25;5036731;28;19917;-79
2022/12/30 10:16:39;;;;;;;;;;;;;;;6.28;100.00;100378.38;5037528;28;20068;-79
2022/12/30 10:19:07;;;;;;;;;;;;;;;6.27;100.00;100374.88;5023641;28;19910;-79
2022/12/30 10:21:40;;;;;;;;;;;;;;;6.28;100.00;100371.41;5017740;28;20070;-79
2022/12/30 10:24:43;;;;;;;;;;;;;;;6.29;100.00;100370.53;5018347;28;20225;-79
2022/12/30 10:27:20;;;;;;;;;;;;;;;6.28;100.00;100361.00;4998509;28;19913;-79
2022/12/30 10:29:45;;;;;;;;;;;;;;;6.28;100.00;100340.19;5008955;28;19932;-79
2022/12/30 10:32:17;;;;;;;;;;;;;;;6.28;100.00;100331.56;5017038;28;19921;-79
2022/12/30 10:34:43;;;;;;;;;;;;;;;6.29;100.00;100322.84;5026631;28;19932;-79
2022/12/30 10:37:16;;;;;;;;;;;;;;;6.28;100.00;100327.19;5023677;28;20120;-79
2022/12/30 10:39:45;;;;;;;;;;;;;;;6.29;100.00;100313.31;5028628;28;19979;-79
2022/12/30 10:42:15;;;;;;;;;;;;;;;6.30;100.00;100301.16;5026791;28;20282;-79
2022/12/30 10:44:48;;;;;;;;;;;;;;;6.30;100.00;100293.34;5023064;28;20216;-79
2022/12/30 10:47:28;;;;;;;;;;;;;;;6.31;100.00;100272.50;5026924;28;20140;-79
2022/12/30 10:50:12;;;;;;;;;;;;;;;6.31;100.00;100262.09;5026338;28;19948;-79
2022/12/30 10:52:38;;;;;;;;;;;;;;;6.33;100.00;100260.28;5025680;28;20201;-79
2022/12/30 10:55:32;;;;;;;;;;;;;;;6.34;100.00;100240.31;5021675;28;19948;-80
2022/12/30 10:58:06;;;;;;;;;;;;;;;6.35;100.00;100218.63;5025256;28;19929;-79
2022/12/30 11:00:39;;;;;;;;;;;;;;;6.35;100.00;100218.63;5037024;28;19921;-79
2022/12/30 11:03:20;;;;;;;;;;;;;;;6.36;100.00;100206.47;5029494;28;19948;-81
2022/12/30 11:05:46;;;;;;;;;;;;;;;6.38;100.00;100195.09;5029066;28;19976;-81
2022/12/30 11:08:22;;;;;;;;;;;;;;;6.38;100.00;100183.84;5027020;28;19928;-80
2022/12/30 11:10:58;;;;;;;;;;;;;;;6.37;100.00;100176.94;5028651;28;20015;-79
2022/12/30 11:16:07;;;;;;;;;;;;;;;6.38;100.00;100160.44;5037314;28;19928;-80
2022/12/30 11:18:35;;;;;;;;;;;;;;;6.39;100.00;100160.41;5028416;28;19926;-82
2022/12/30 11:21:01;;;;;;;;;;;;;;;6.38;100.00;100158.69;5035978;28;19914;-81
2022/12/30 11:23:29;;;;;;;;;;;;;;;6.41;100.00;100144.75;5030060;28;19921;-81
2022/12/30 11:25:55;;;;;;;;;;;;;;;6.41;100.00;100114.38;5036854;28;20191;-80
2022/12/30 11:28:22;;;;;;;;;;;;;;;6.43;100.00;100119.53;5038576;28;19921;-81
2022/12/30 11:30:51;;;;;;;;;;;;;;;6.43;100.00;100112.56;5042876;28;19913;-81
2022/12/30 11:33:18;;;;;;;;;;;;;;;6.44;100.00;100103.88;5033340;28;19927;-80
2022/12/30 11:35:46;;;;;;;;;;;;;;;6.47;100.00;100097.69;5037353;28;19921;-80
2022/12/30 11:38:38;;;;;;;;;;;;;;;6.46;100.00;100078.66;5032522;28;20106;-80
2022/12/30 11:41:18;;;;;;;;;;;;;;;6.48;100.00;100066.44;5029210;28;19988;-79
2022/12/30 11:43:44;;;;;;;;;;;;;;;6.49;100.00;100047.34;5036515;28;19984;-79
2022/12/30 11:46:14;;;;;;;;;;;;;;;6.51;100.00;100031.66;5031810;28;20255;-79
2022/12/30 11:48:43;;;;;;;;;;;;;;;6.52;100.00;100025.56;5037045;28;19924;-80
2022/12/30 11:51:29;;;;;;;;;;;;;;;6.52;100.00;100029.00;5034528;28;20244;-79
2022/12/30 11:54:09;;;;;;;;;;;;;;;6.52;100.00;100008.19;5037793;28;19973;-79
2022/12/30 11:56:36;;;;;;;;;;;;;;;6.54;100.00;100000.31;5026865;28;19921;-79
2022/12/30 11:59:07;;;;;;;;;;;;;;;6.53;100.00;99976.06;5041499;28;20117;-79
2022/12/30 12:01:47;;;;;;;;;;;;;;;6.54;100.00;99980.34;5048942;28;19921;-79
2022/12/30 12:04:48;;;;;;;;;;;;;;;6.55;100.00;99973.41;5037952;28;19925;-79
2022/12/30 12:07:16;;;;;;;;;;;;;;;6.58;100.00;99970.69;4977290;28;19921;-79
2022/12/30 12:09:46;;;;;;;;;;;;;;;6.58;100.00;99969.84;5038630;28;19921;-79
2022/12/30 12:12:12;;;;;;;;;;;;;;;6.59;100.00;99964.59;5036598;28;20162;-79
2022/12/30 12:14:52;;;;;;;;;;;;;;;6.61;100.00;99959.31;5038408;28;19976;-80
2022/12/30 12:17:24;;;;;;;;;;;;;;;6.61;100.00;99954.13;5036659;28;19921;-80
2022/12/30 12:19:53;;;;;;;;;;;;;;;6.62;100.00;99929.78;5044810;28;19909;-80
2022/12/30 12:22:23;;;;;;;;;;;;;;;6.64;100.00;99926.22;5035621;28;19924;-79
2022/12/30 12:24:53;;;;;;;;;;;;;;;6.64;100.00;99895.00;5024142;28;19923;-79
2022/12/30 12:27:19;;;;;;;;;;;;;;;6.65;100.00;99881.06;5025094;28;19927;-79
2022/12/30 12:29:45;;;;;;;;;;;;;;;6.67;100.00;99858.44;5027748;28;20098;-79
2022/12/30 12:32:19;;;;;;;;;;;;;;;6.68;100.00;99846.31;5026322;28;19932;-79
2022/12/30 12:35:02;;;;;;;;;;;;;;;6.69;100.00;99830.63;5034025;28;19916;-79
2022/12/30 12:37:44;;;;;;;;;;;;;;;6.70;100.00;99816.69;5037109;28;19920;-80
2022/12/30 12:40:12;;;;;;;;;;;;;;;6.71;100.00;99799.31;5035124;28;20143;-79
2022/12/30 12:42:44;;;;;;;;;;;;;;;6.72;100.00;99786.25;5032666;28;19925;-80
2022/12/30 12:45:16;;;;;;;;;;;;;;;6.73;100.00;99776.69;5028798;28;19948;-77
2022/12/30 12:47:47;;;;;;;;;;;;;;;6.73;100.00;99764.53;5026318;28;19920;-79
2022/12/30 12:50:15;;;;;;;;;;;;;;;6.75;100.00;99759.28;5038887;28;19947;-79
2022/12/30 12:52:49;;;;;;;;;;;;;;;6.77;100.00;99746.16;5041482;28;19920;-79
2022/12/30 12:55:41;;;;;;;;;;;;;;;6.78;100.00;99719.25;5038853;28;19917;-80
2022/12/30 12:58:06;;;;;;;;;;;;;;;6.79;100.00;99720.97;5016424;28;20151;-78
2022/12/30 13:00:52;;;;;;;;;;;;;;;6.80;100.00;99712.22;5049485;28;19927;-79
2022/12/30 13:03:21;;;;;;;;;;;;;;;6.80;100.00;99696.59;5020832;28;19925;-79
2022/12/30 13:06:02;;;;;;;;;;;;;;;6.82;100.00;99692.19;5033950;28;19991;-80
2022/12/30 13:08:52;;;;;;;;;;;;;;;6.84;100.00;99682.53;5033984;28;19932;-79
2022/12/30 13:11:17;;;;;;;;;;;;;;;6.85;100.00;99668.63;5034490;28;19928;-79
2022/12/30 13:13:56;;;;;;;;;;;;;;;6.85;100.00;99653.00;5034171;28;20277;-78
2022/12/30 13:16:26;;;;;;;;;;;;;;;6.87;100.00;99659.00;5031384;28;19917;-79
2022/12/30 13:18:54;;;;;;;;;;;;;;;6.88;100.00;99661.53;5036536;28;19963;-79
2022/12/30 13:21:21;;;;;;;;;;;;;;;6.89;100.00;99650.22;5024612;28;19913;-80
2022/12/30 13:23:48;;;;;;;;;;;;;;;6.90;100.00;99649.28;5043230;28;20265;-79
2022/12/30 13:26:13;;;;;;;;;;;;;;;6.92;100.00;99629.25;5035151;28;19984;-79
2022/12/30 13:28:39;;;;;;;;;;;;;;;6.94;100.00;99639.59;5030693;28;19917;-79
2022/12/30 13:31:09;;;;;;;;;;;;;;;6.96;100.00;99613.50;5030209;28;19925;-80
2022/12/30 13:33:37;;;;;;;;;;;;;;;6.97;100.00;99615.16;5036683;28;19921;-78
2022/12/30 13:36:14;;;;;;;;;;;;;;;6.98;100.00;99609.91;5036470;28;19948;-79
2022/12/30 13:38:58;;;;;;;;;;;;;;;6.99;100.00;99610.75;5036126;28;19983;-79